Redwood Lodge, California
Current Conditions -  °F | °C
As of 9:56 AM on Sunday 23 Nov 2014 (Local Time) from KUKI Reporting Station
Clear Clear  
Wind Chill: 47°   Ceiling: Unl
Heat Index: 47°   Visibility: 10mi
Dew Point: 43°   Wind: 0mph
Humidity: 86%   Direction: NA
Pressure: 30.37"   Gusts: NA
Location:  39.4588°N, 123.715°W
Report Text: KUKI 231756Z AUTO 00000KT 10SM CLR 08/06 A3037 RMK AO2 SLP283 T00830061 10083 20039 50005
Loading
Personal Weather Stations






























Interactive Weather Map New forecast layout! Learn more

10-Day Weather Forecast

Advertisements
Track Severe Weather on mobile